sensor_id;sensor_type;location;lat;lon;timestamp;pressure;altitude;pressure_sealevel;temperature;humidity
12486;BME280;6307;46.804;11.580;2022-12-11T00:01:13;-20992.41;;;4.67;47.98
12486;BME280;6307;46.804;11.580;2022-12-11T00:03:41;-20996.75;;;4.82;51.70
12486;BME280;6307;46.804;11.580;2022-12-11T00:06:09;-20997.06;;;4.83;50.08
12486;BME280;6307;46.804;11.580;2022-12-11T00:08:37;-20994.97;;;4.76;49.16
12486;BME280;6307;46.804;11.580;2022-12-11T00:11:04;-20990.75;;;4.62;49.86
12486;BME280;6307;46.804;11.580;2022-12-11T00:13:33;-20988.94;;;4.56;47.83
12486;BME280;6307;46.804;11.580;2022-12-11T00:16:00;-20996.75;;;4.82;47.28
12486;BME280;6307;46.804;11.580;2022-12-11T00:18:26;-20999.94;;;4.92;47.61
12486;BME280;6307;46.804;11.580;2022-12-11T00:20:52;-20995.72;;;4.78;47.56
12486;BME280;6307;46.804;11.580;2022-12-11T00:23:18;-20994.97;;;4.76;49.97
12486;BME280;6307;46.804;11.580;2022-12-11T00:25:46;-20988.63;;;4.55;47.89
12486;BME280;6307;46.804;11.580;2022-12-11T00:28:14;-20989.38;;;4.57;49.79
12486;BME280;6307;46.804;11.580;2022-12-11T00:30:43;-20977.03;;;4.16;46.48
12486;BME280;6307;46.804;11.580;2022-12-11T00:33:10;-20992.09;;;4.66;47.57
12486;BME280;6307;46.804;11.580;2022-12-11T00:35:42;-20986.97;;;4.49;47.32
12486;BME280;6307;46.804;11.580;2022-12-11T00:38:18;-20982.91;;;4.36;46.89
12486;BME280;6307;46.804;11.580;2022-12-11T00:40:46;-20980.94;;;4.29;48.56
12486;BME280;6307;46.804;11.580;2022-12-11T00:43:13;-20985.63;;;4.45;47.08
12486;BME280;6307;46.804;11.580;2022-12-11T00:45:41;-20988.03;;;4.53;48.83
12486;BME280;6307;46.804;11.580;2022-12-11T00:48:09;-20971.00;;;3.96;45.64
12486;BME280;6307;46.804;11.580;2022-12-11T00:50:38;-20990.28;;;4.60;45.95
12486;BME280;6307;46.804;11.580;2022-12-11T00:53:05;-20990.13;;;4.60;46.15
12486;BME280;6307;46.804;11.580;2022-12-11T00:55:37;-20983.22;;;4.37;45.84
12486;BME280;6307;46.804;11.580;2022-12-11T00:58:05;-20979.13;;;4.23;43.99
12486;BME280;6307;46.804;11.580;2022-12-11T01:00:32;-20989.09;;;4.56;45.53
12486;BME280;6307;46.804;11.580;2022-12-11T01:02:59;-20989.38;;;4.57;45.84
12486;BME280;6307;46.804;11.580;2022-12-11T01:05:26;-20989.97;;;4.59;45.68
12486;BME280;6307;46.804;11.580;2022-12-11T01:07:52;-20988.03;;;4.53;44.64
12486;BME280;6307;46.804;11.580;2022-12-11T01:10:18;-20988.03;;;4.53;44.07
12486;BME280;6307;46.804;11.580;2022-12-11T01:12:51;-20989.53;;;4.58;43.84
12486;BME280;6307;46.804;11.580;2022-12-11T01:15:32;-20985.16;;;4.43;43.86
12486;BME280;6307;46.804;11.580;2022-12-11T01:18:03;-20991.34;;;4.64;43.46
12486;BME280;6307;46.804;11.580;2022-12-11T01:20:29;-20995.72;;;4.78;44.64
12486;BME280;6307;46.804;11.580;2022-12-11T01:22:58;-20990.44;;;4.61;44.06
12486;BME280;6307;46.804;11.580;2022-12-11T01:25:26;-20990.44;;;4.61;43.62
12486;BME280;6307;46.804;11.580;2022-12-11T01:27:54;-20986.53;;;4.48;44.09
12486;BME280;6307;46.804;11.580;2022-12-11T01:30:23;-20986.53;;;4.48;43.85
12486;BME280;6307;46.804;11.580;2022-12-11T01:32:50;-20994.81;;;4.75;43.55
12486;BME280;6307;46.804;11.580;2022-12-11T01:35:17;-20985.00;;;4.43;44.06
12486;BME280;6307;46.804;11.580;2022-12-11T01:37:44;-20989.09;;;4.56;43.58
12486;BME280;6307;46.804;11.580;2022-12-11T01:40:14;-20987.72;;;4.52;44.66
12486;BME280;6307;46.804;11.580;2022-12-11T01:42:41;-20988.47;;;4.54;43.70
12486;BME280;6307;46.804;11.580;2022-12-11T01:45:38;-20977.94;;;4.19;45.28
12486;BME280;6307;46.804;11.580;2022-12-11T01:48:18;-20985.16;;;4.43;43.47
12486;BME280;6307;46.804;11.580;2022-12-11T01:50:59;-20986.22;;;4.47;44.30
12486;BME280;6307;46.804;11.580;2022-12-11T01:53:36;-20984.13;;;4.40;44.88
12486;BME280;6307;46.804;11.580;2022-12-11T01:56:07;-20977.47;;;4.18;43.44
12486;BME280;6307;46.804;11.580;2022-12-11T01:58:42;-20982.75;;;4.35;44.49
12486;BME280;6307;46.804;11.580;2022-12-11T02:01:19;-20982.59;;;4.35;44.12
12486;BME280;6307;46.804;11.580;2022-12-11T02:04:08;-20983.81;;;4.39;43.71
12486;BME280;6307;46.804;11.580;2022-12-11T02:06:42;-20984.56;;;4.41;43.54
12486;BME280;6307;46.804;11.580;2022-12-11T02:09:16;-20980.19;;;4.27;43.42
12486;BME280;6307;46.804;11.580;2022-12-11T02:11:54;-20974.78;;;4.09;43.62
12486;BME280;6307;46.804;11.580;2022-12-11T02:16:55;-20972.81;;;4.02;44.00
12486;BME280;6307;46.804;11.580;2022-12-11T02:20:04;-20974.16;;;4.07;44.51
12486;BME280;6307;46.804;11.580;2022-12-11T02:25:52;-20971.75;;;3.99;43.92
12486;BME280;6307;46.804;11.580;2022-12-11T02:28:42;-20980.81;;;4.29;43.47
12486;BME280;6307;46.804;11.580;2022-12-11T02:31:19;-20978.25;;;4.20;44.25
12486;BME280;6307;46.804;11.580;2022-12-11T02:36:15;-20972.34;;;4.01;43.29
12486;BME280;6307;46.804;11.580;2022-12-11T02:38:44;-20970.25;;;3.94;45.11
12486;BME280;6307;46.804;11.580;2022-12-11T02:41:16;-20969.34;;;3.91;43.17
12486;BME280;6307;46.804;11.580;2022-12-11T02:43:46;-20967.25;;;3.84;44.04
12486;BME280;6307;46.804;11.580;2022-12-11T02:46:16;-20972.97;;;4.03;45.21
12486;BME280;6307;46.804;11.580;2022-12-11T02:48:47;-20972.66;;;4.02;44.63
12486;BME280;6307;46.804;11.580;2022-12-11T02:51:16;-20967.53;;;3.85;43.55
12486;BME280;6307;46.804;11.580;2022-12-11T02:53:48;-20974.63;;;4.08;43.72
12486;BME280;6307;46.804;11.580;2022-12-11T02:56:23;-20972.81;;;4.02;44.04
12486;BME280;6307;46.804;11.580;2022-12-11T02:59:06;-20969.03;;;3.90;42.63
12486;BME280;6307;46.804;11.580;2022-12-11T03:01:37;-20973.56;;;4.05;43.00
12486;BME280;6307;46.804;11.580;2022-12-11T03:04:03;-20974.63;;;4.08;43.52
12486;BME280;6307;46.804;11.580;2022-12-11T03:06:36;-20959.41;;;3.58;43.64
12486;BME280;6307;46.804;11.580;2022-12-11T03:09:08;-20960.31;;;3.61;41.98
12486;BME280;6307;46.804;11.580;2022-12-11T03:11:34;-20970.72;;;3.95;42.95
12486;BME280;6307;46.804;11.580;2022-12-11T03:14:01;-20968.44;;;3.88;44.14
12486;BME280;6307;46.804;11.580;2022-12-11T03:17:22;-20971.31;;;3.97;42.26
12486;BME280;6307;46.804;11.580;2022-12-11T03:22:47;-20969.66;;;3.92;43.46
12486;BME280;6307;46.804;11.580;2022-12-11T03:25:21;-20968.28;;;3.87;43.22
12486;BME280;6307;46.804;11.580;2022-12-11T03:28:00;-20963.78;;;3.72;42.65
12486;BME280;6307;46.804;11.580;2022-12-11T03:30:35;-20968.28;;;3.87;42.93
12486;BME280;6307;46.804;11.580;2022-12-11T03:36:06;-20971.59;;;3.98;41.85
12486;BME280;6307;46.804;11.580;2022-12-11T03:38:40;-20971.91;;;3.99;43.01
12486;BME280;6307;46.804;11.580;2022-12-11T03:41:15;-20966.34;;;3.81;43.03
12486;BME280;6307;46.804;11.580;2022-12-11T03:43:44;-20964.97;;;3.76;42.54
12486;BME280;6307;46.804;11.580;2022-12-11T03:46:12;-20972.22;;;4.00;41.96
12486;BME280;6307;46.804;11.580;2022-12-11T03:48:42;-20971.47;;;3.98;41.99
12486;BME280;6307;46.804;11.580;2022-12-11T03:51:11;-20972.50;;;4.01;42.53
12486;BME280;6307;46.804;11.580;2022-12-11T03:53:38;-20974.31;;;4.07;43.28
12486;BME280;6307;46.804;11.580;2022-12-11T03:56:06;-20967.38;;;3.84;42.48
12486;BME280;6307;46.804;11.580;2022-12-11T03:58:35;-20966.34;;;3.81;42.27
12486;BME280;6307;46.804;11.580;2022-12-11T04:01:01;-20967.25;;;3.84;40.40
12486;BME280;6307;46.804;11.580;2022-12-11T04:03:27;-20964.06;;;3.73;42.46
12486;BME280;6307;46.804;11.580;2022-12-11T04:05:54;-20965.59;;;3.78;41.62
12486;BME280;6307;46.804;11.580;2022-12-11T04:08:21;-20968.16;;;3.87;42.00
12486;BME280;6307;46.804;11.580;2022-12-11T04:10:49;-20961.81;;;3.66;42.07
12486;BME280;6307;46.804;11.580;2022-12-11T04:13:39;-20970.56;;;3.95;41.82
12486;BME280;6307;46.804;11.580;2022-12-11T04:16:06;-20969.03;;;3.90;41.05
12486;BME280;6307;46.804;11.580;2022-12-11T04:18:33;-20964.22;;;3.74;41.71
12486;BME280;6307;46.804;11.580;2022-12-11T04:21:38;-20960.75;;;3.62;42.96
12486;BME280;6307;46.804;11.580;2022-12-11T04:24:22;-20958.34;;;3.54;41.96
12486;BME280;6307;46.804;11.580;2022-12-11T04:26:48;-20961.97;;;3.66;41.75
12486;BME280;6307;46.804;11.580;2022-12-11T04:29:15;-20969.66;;;3.92;41.45
12486;BME280;6307;46.804;11.580;2022-12-11T04:31:41;-20961.97;;;3.66;43.06
12486;BME280;6307;46.804;11.580;2022-12-11T04:34:07;-20967.84;;;3.86;41.61
12486;BME280;6307;46.804;11.580;2022-12-11T04:36:33;-20965.28;;;3.77;42.14
12486;BME280;6307;46.804;11.580;2022-12-11T04:39:00;-20947.78;;;3.19;40.79
12486;BME280;6307;46.804;11.580;2022-12-11T04:41:26;-20963.78;;;3.72;40.99
12486;BME280;6307;46.804;11.580;2022-12-11T04:43:52;-20957.91;;;3.53;41.08
12486;BME280;6307;46.804;11.580;2022-12-11T04:46:20;-20961.97;;;3.66;41.72
12486;BME280;6307;46.804;11.580;2022-12-11T04:48:48;-20954.88;;;3.43;43.34
12486;BME280;6307;46.804;11.580;2022-12-11T04:51:15;-20952.47;;;3.35;43.30
12486;BME280;6307;46.804;11.580;2022-12-11T04:53:43;-20949.31;;;3.24;41.30
12486;BME280;6307;46.804;11.580;2022-12-11T04:56:12;-20956.38;;;3.48;42.41
12486;BME280;6307;46.804;11.580;2022-12-11T04:58:41;-20942.81;;;3.03;42.23
12486;BME280;6307;46.804;11.580;2022-12-11T05:03:39;-20955.78;;;3.46;43.14
12486;BME280;6307;46.804;11.580;2022-12-11T05:06:05;-20958.66;;;3.55;42.36
12486;BME280;6307;46.804;11.580;2022-12-11T05:08:34;-20957.59;;;3.52;42.52
12486;BME280;6307;46.804;11.580;2022-12-11T05:11:03;-20959.09;;;3.57;43.00
12486;BME280;6307;46.804;11.580;2022-12-11T05:13:31;-20946.13;;;3.14;43.96
12486;BME280;6307;46.804;11.580;2022-12-11T05:15:58;-20947.03;;;3.17;42.24
12486;BME280;6307;46.804;11.580;2022-12-11T05:18:27;-20947.94;;;3.20;42.85
12486;BME280;6307;46.804;11.580;2022-12-11T05:20:54;-20949.16;;;3.24;42.76
12486;BME280;6307;46.804;11.580;2022-12-11T05:23:22;-20958.34;;;3.54;42.96
12486;BME280;6307;46.804;11.580;2022-12-11T05:25:57;-20954.28;;;3.41;42.25
12486;BME280;6307;46.804;11.580;2022-12-11T05:28:26;-20951.72;;;3.32;42.02
12486;BME280;6307;46.804;11.580;2022-12-11T05:30:58;-20944.94;;;3.10;42.38
12486;BME280;6307;46.804;11.580;2022-12-11T05:33:27;-20947.50;;;3.18;43.25
12486;BME280;6307;46.804;11.580;2022-12-11T05:35:54;-20950.66;;;3.29;42.55
12486;BME280;6307;46.804;11.580;2022-12-11T05:38:20;-20953.53;;;3.38;43.49
12486;BME280;6307;46.804;11.580;2022-12-11T05:41:01;-20942.06;;;3.00;43.42
12486;BME280;6307;46.804;11.580;2022-12-11T05:43:32;-20941.31;;;2.98;43.84
12486;BME280;6307;46.804;11.580;2022-12-11T05:46:08;-20945.09;;;3.10;43.29
12486;BME280;6307;46.804;11.580;2022-12-11T05:48:37;-20932.56;;;2.69;41.63
12486;BME280;6307;46.804;11.580;2022-12-11T05:51:04;-20950.34;;;3.28;45.96
12486;BME280;6307;46.804;11.580;2022-12-11T05:53:32;-20949.00;;;3.23;42.62
12486;BME280;6307;46.804;11.580;2022-12-11T05:56:07;-20940.72;;;2.96;40.45
12486;BME280;6307;46.804;11.580;2022-12-11T05:58:38;-20946.13;;;3.14;41.88
12486;BME280;6307;46.804;11.580;2022-12-11T06:01:14;-20957.00;;;3.50;42.31
12486;BME280;6307;46.804;11.580;2022-12-11T06:03:42;-20950.50;;;3.28;42.43
12486;BME280;6307;46.804;11.580;2022-12-11T06:06:09;-20945.53;;;3.12;42.15
12486;BME280;6307;46.804;11.580;2022-12-11T06:08:35;-20949.31;;;3.24;42.72
12486;BME280;6307;46.804;11.580;2022-12-11T06:11:03;-20938.16;;;2.87;42.92
12486;BME280;6307;46.804;11.580;2022-12-11T06:13:30;-20948.84;;;3.23;43.10
12486;BME280;6307;46.804;11.580;2022-12-11T06:16:04;-20947.03;;;3.17;42.51
12486;BME280;6307;46.804;11.580;2022-12-11T06:18:35;-20944.63;;;3.09;43.15
12486;BME280;6307;46.804;11.580;2022-12-11T06:21:20;-20944.19;;;3.07;43.12
12486;BME280;6307;46.804;11.580;2022-12-11T06:23:56;-20937.25;;;2.84;41.99
12486;BME280;6307;46.804;11.580;2022-12-11T06:26:24;-20939.19;;;2.91;42.52
12486;BME280;6307;46.804;11.580;2022-12-11T06:28:51;-20944.03;;;3.07;42.59
12486;BME280;6307;46.804;11.580;2022-12-11T06:31:18;-20937.53;;;2.85;41.03
12486;BME280;6307;46.804;11.580;2022-12-11T06:33:44;-20934.53;;;2.75;40.07
12486;BME280;6307;46.804;11.580;2022-12-11T06:36:17;-20934.53;;;2.75;42.70
12486;BME280;6307;46.804;11.580;2022-12-11T06:38:46;-20941.91;;;3.00;41.86
12486;BME280;6307;46.804;11.580;2022-12-11T06:41:13;-20943.88;;;3.06;42.59
12486;BME280;6307;46.804;11.580;2022-12-11T06:43:40;-20932.88;;;2.70;40.56
12486;BME280;6307;46.804;11.580;2022-12-11T06:46:13;-20943.28;;;3.04;41.47
12486;BME280;6307;46.804;11.580;2022-12-11T06:48:41;-20933.78;;;2.73;40.37
12486;BME280;6307;46.804;11.580;2022-12-11T06:51:11;-20939.81;;;2.93;41.10
12486;BME280;6307;46.804;11.580;2022-12-11T06:53:39;-20940.09;;;2.94;41.46
12486;BME280;6307;46.804;11.580;2022-12-11T06:56:08;-20927.00;;;2.50;38.25
12486;BME280;6307;46.804;11.580;2022-12-11T06:58:37;-20934.22;;;2.74;39.50
12486;BME280;6307;46.804;11.580;2022-12-11T07:01:13;-20944.47;;;3.08;39.88
12486;BME280;6307;46.804;11.580;2022-12-11T07:03:46;-20943.72;;;3.06;38.82
12486;BME280;6307;46.804;11.580;2022-12-11T07:06:13;-20937.84;;;2.86;39.82
12486;BME280;6307;46.804;11.580;2022-12-11T07:08:40;-20945.38;;;3.11;39.49
12486;BME280;6307;46.804;11.580;2022-12-11T07:11:12;-20934.97;;;2.77;39.73
12486;BME280;6307;46.804;11.580;2022-12-11T07:13:41;-20930.31;;;2.61;37.65
12486;BME280;6307;46.804;11.580;2022-12-11T07:16:09;-20944.03;;;3.07;39.45
12486;BME280;6307;46.804;11.580;2022-12-11T07:18:37;-20944.94;;;3.10;39.19
12486;BME280;6307;46.804;11.580;2022-12-11T07:21:06;-20941.75;;;2.99;37.73
12486;BME280;6307;46.804;11.580;2022-12-11T07:23:34;-20938.16;;;2.87;39.51
12486;BME280;6307;46.804;11.580;2022-12-11T07:26:12;-20940.25;;;2.94;38.97
12486;BME280;6307;46.804;11.580;2022-12-11T07:28:40;-20939.34;;;2.91;36.84
12486;BME280;6307;46.804;11.580;2022-12-11T07:31:10;-20945.84;;;3.13;37.77
12486;BME280;6307;46.804;11.580;2022-12-11T07:33:38;-20937.25;;;2.84;38.48
12486;BME280;6307;46.804;11.580;2022-12-11T07:36:07;-20942.53;;;3.02;38.75
12486;BME280;6307;46.804;11.580;2022-12-11T07:38:35;-20932.56;;;2.69;38.50
12486;BME280;6307;46.804;11.580;2022-12-11T07:41:03;-20942.66;;;3.02;39.25
12486;BME280;6307;46.804;11.580;2022-12-11T07:43:31;-20936.34;;;2.81;39.08
12486;BME280;6307;46.804;11.580;2022-12-11T07:46:06;-20937.84;;;2.86;36.82
12486;BME280;6307;46.804;11.580;2022-12-11T07:48:35;-20931.97;;;2.67;36.52
12486;BME280;6307;46.804;11.580;2022-12-11T07:51:14;-20937.41;;;2.85;37.24
12486;BME280;6307;46.804;11.580;2022-12-11T07:53:44;-20936.94;;;2.83;36.60
12486;BME280;6307;46.804;11.580;2022-12-11T07:56:12;-20938.44;;;2.88;36.77
12486;BME280;6307;46.804;11.580;2022-12-11T07:58:40;-20939.34;;;2.91;36.44
12486;BME280;6307;46.804;11.580;2022-12-11T08:01:11;-20936.94;;;2.83;36.38
12486;BME280;6307;46.804;11.580;2022-12-11T08:03:39;-20951.56;;;3.32;37.86
12486;BME280;6307;46.804;11.580;2022-12-11T08:06:07;-20926.84;;;2.50;35.88
12486;BME280;6307;46.804;11.580;2022-12-11T08:08:33;-20945.38;;;3.11;37.09
12486;BME280;6307;46.804;11.580;2022-12-11T08:11:01;-20932.56;;;2.69;36.39
12486;BME280;6307;46.804;11.580;2022-12-11T08:13:31;-20941.91;;;3.00;36.99
12486;BME280;6307;46.804;11.580;2022-12-11T08:15:58;-20939.50;;;2.92;37.00
12486;BME280;6307;46.804;11.580;2022-12-11T08:18:27;-20942.97;;;3.03;36.39
12486;BME280;6307;46.804;11.580;2022-12-11T08:20:54;-20932.25;;;2.68;36.71
12486;BME280;6307;46.804;11.580;2022-12-11T08:23:20;-20938.00;;;2.87;35.58
12486;BME280;6307;46.804;11.580;2022-12-11T08:25:46;-20938.91;;;2.90;37.40
12486;BME280;6307;46.804;11.580;2022-12-11T08:28:12;-20947.19;;;3.17;37.67
12486;BME280;6307;46.804;11.580;2022-12-11T08:30:39;-20946.44;;;3.15;39.17
12486;BME280;6307;46.804;11.580;2022-12-11T08:33:05;-20945.53;;;3.12;37.54
12486;BME280;6307;46.804;11.580;2022-12-11T08:35:32;-20942.06;;;3.00;37.23
12486;BME280;6307;46.804;11.580;2022-12-11T08:38:02;-20936.94;;;2.83;36.66
12486;BME280;6307;46.804;11.580;2022-12-11T08:40:28;-20942.97;;;3.03;37.44
12486;BME280;6307;46.804;11.580;2022-12-11T08:42:54;-20937.09;;;2.84;36.49
12486;BME280;6307;46.804;11.580;2022-12-11T08:45:20;-20944.63;;;3.09;36.85
12486;BME280;6307;46.804;11.580;2022-12-11T08:47:46;-20941.31;;;2.98;37.30
12486;BME280;6307;46.804;11.580;2022-12-11T08:50:12;-20937.84;;;2.86;36.47
12486;BME280;6307;46.804;11.580;2022-12-11T08:52:38;-20954.88;;;3.43;37.05
12486;BME280;6307;46.804;11.580;2022-12-11T08:55:05;-20952.16;;;3.34;36.73
12486;BME280;6307;46.804;11.580;2022-12-11T08:57:31;-20952.47;;;3.35;37.04
12486;BME280;6307;46.804;11.580;2022-12-11T08:59:57;-20939.06;;;2.90;35.89
12486;BME280;6307;46.804;11.580;2022-12-11T09:02:23;-20941.47;;;2.98;35.30
12486;BME280;6307;46.804;11.580;2022-12-11T09:04:49;-20945.53;;;3.12;37.78
12486;BME280;6307;46.804;11.580;2022-12-11T09:07:16;-20949.16;;;3.24;35.96
12486;BME280;6307;46.804;11.580;2022-12-11T09:09:42;-20942.97;;;3.03;34.95
12486;BME280;6307;46.804;11.580;2022-12-11T09:12:08;-20943.88;;;3.06;35.30
12486;BME280;6307;46.804;11.580;2022-12-11T09:14:34;-20947.50;;;3.18;35.78
12486;BME280;6307;46.804;11.580;2022-12-11T09:17:00;-20948.25;;;3.21;35.59
12486;BME280;6307;46.804;11.580;2022-12-11T09:19:27;-20949.00;;;3.23;35.38
12486;BME280;6307;46.804;11.580;2022-12-11T09:21:53;-20947.19;;;3.17;35.43
12486;BME280;6307;46.804;11.580;2022-12-11T09:24:20;-20945.38;;;3.11;35.46
12486;BME280;6307;46.804;11.580;2022-12-11T09:26:46;-20950.81;;;3.29;35.29
12486;BME280;6307;46.804;11.580;2022-12-11T09:29:12;-20938.00;;;2.87;33.70
12486;BME280;6307;46.804;11.580;2022-12-11T09:31:38;-20938.44;;;2.88;35.71
12486;BME280;6307;46.804;11.580;2022-12-11T09:34:07;-20941.16;;;2.97;34.57
12486;BME280;6307;46.804;11.580;2022-12-11T09:36:37;-20954.28;;;3.41;36.67
12486;BME280;6307;46.804;11.580;2022-12-11T09:39:06;-20954.72;;;3.42;36.98
12486;BME280;6307;46.804;11.580;2022-12-11T09:46:58;-20947.66;;;3.19;36.21
12486;BME280;6307;46.804;11.580;2022-12-11T09:49:27;-20951.88;;;3.33;35.07
12486;BME280;6307;46.804;11.580;2022-12-11T09:52:09;-20954.44;;;3.41;35.31
12486;BME280;6307;46.804;11.580;2022-12-11T09:54:59;-20945.25;;;3.11;36.21
12486;BME280;6307;46.804;11.580;2022-12-11T09:57:53;-20947.50;;;3.18;36.22
12486;BME280;6307;46.804;11.580;2022-12-11T10:00:47;-20943.88;;;3.06;36.61
12486;BME280;6307;46.804;11.580;2022-12-11T10:12:43;-20952.16;;;3.34;35.61
12486;BME280;6307;46.804;11.580;2022-12-11T10:15:42;-20950.06;;;3.27;35.47
12486;BME280;6307;46.804;11.580;2022-12-11T10:18:19;-20945.38;;;3.11;34.67
12486;BME280;6307;46.804;11.580;2022-12-11T10:20:51;-20949.00;;;3.23;33.41
12486;BME280;6307;46.804;11.580;2022-12-11T10:23:27;-20947.78;;;3.19;33.90
12486;BME280;6307;46.804;11.580;2022-12-11T10:26:05;-20947.66;;;3.19;34.24
12486;BME280;6307;46.804;11.580;2022-12-11T10:28:33;-20946.13;;;3.14;35.21
12486;BME280;6307;46.804;11.580;2022-12-11T10:34:01;-20946.44;;;3.15;33.40
12486;BME280;6307;46.804;11.580;2022-12-11T10:36:31;-20944.03;;;3.07;33.41
12486;BME280;6307;46.804;11.580;2022-12-11T10:39:01;-20954.44;;;3.41;34.71
12486;BME280;6307;46.804;11.580;2022-12-11T10:41:38;-20958.19;;;3.54;34.76
12486;BME280;6307;46.804;11.580;2022-12-11T10:44:33;-20938.31;;;2.88;34.28
12486;BME280;6307;46.804;11.580;2022-12-11T10:47:03;-20950.66;;;3.29;33.97
12486;BME280;6307;46.804;11.580;2022-12-11T10:49:38;-20955.19;;;3.44;34.62
12486;BME280;6307;46.804;11.580;2022-12-11T10:52:19;-20959.56;;;3.58;33.49
12486;BME280;6307;46.804;11.580;2022-12-11T10:55:05;-20956.84;;;3.49;35.43
12486;BME280;6307;46.804;11.580;2022-12-11T10:57:43;-20960.75;;;3.62;34.69
12486;BME280;6307;46.804;11.580;2022-12-11T11:00:37;-20954.13;;;3.40;35.83
12486;BME280;6307;46.804;11.580;2022-12-11T11:03:18;-20957.00;;;3.50;35.18
12486;BME280;6307;46.804;11.580;2022-12-11T11:05:47;-20959.56;;;3.58;33.74
12486;BME280;6307;46.804;11.580;2022-12-11T11:08:20;-20961.22;;;3.64;34.51
12486;BME280;6307;46.804;11.580;2022-12-11T11:10:59;-20950.34;;;3.28;33.51
12486;BME280;6307;46.804;11.580;2022-12-11T11:13:30;-20952.47;;;3.35;32.67
12486;BME280;6307;46.804;11.580;2022-12-11T11:16:07;-20952.78;;;3.36;32.49
12486;BME280;6307;46.804;11.580;2022-12-11T11:18:38;-20942.53;;;3.02;31.84
12486;BME280;6307;46.804;11.580;2022-12-11T11:21:06;-20948.25;;;3.21;32.17
12486;BME280;6307;46.804;11.580;2022-12-11T11:23:41;-20948.09;;;3.20;32.59
12486;BME280;6307;46.804;11.580;2022-12-11T11:26:07;-20947.03;;;3.17;33.56
12486;BME280;6307;46.804;11.580;2022-12-11T11:28:37;-20950.50;;;3.28;33.81
12486;BME280;6307;46.804;11.580;2022-12-11T11:34:07;-20946.75;;;3.16;33.56
12486;BME280;6307;46.804;11.580;2022-12-11T11:36:40;-20955.19;;;3.44;33.14
12486;BME280;6307;46.804;11.580;2022-12-11T11:39:16;-20952.78;;;3.36;33.36
12486;BME280;6307;46.804;11.580;2022-12-11T11:42:12;-20959.41;;;3.58;32.10
12486;BME280;6307;46.804;11.580;2022-12-11T11:47:26;-20949.75;;;3.26;34.06
12486;BME280;6307;46.804;11.580;2022-12-11T11:50:15;-20952.63;;;3.35;33.95
12486;BME280;6307;46.804;11.580;2022-12-11T11:53:01;-20945.97;;;3.13;35.16
12486;BME280;6307;46.804;11.580;2022-12-11T11:58:33;-20937.25;;;2.84;35.29
12486;BME280;6307;46.804;11.580;2022-12-11T12:01:13;-20941.75;;;2.99;34.54
12486;BME280;6307;46.804;11.580;2022-12-11T12:03:42;-20941.75;;;2.99;34.35
12486;BME280;6307;46.804;11.580;2022-12-11T12:14:13;-20942.22;;;3.01;34.25
12486;BME280;6307;46.804;11.580;2022-12-11T12:19:46;-20920.19;;;2.28;33.40
12486;BME280;6307;46.804;11.580;2022-12-11T12:25:23;-20921.84;;;2.33;33.26
12486;BME280;6307;46.804;11.580;2022-12-11T12:36:53;-20931.06;;;2.64;33.93
12486;BME280;6307;46.804;11.580;2022-12-11T12:42:16;-20922.16;;;2.34;34.36
12486;BME280;6307;46.804;11.580;2022-12-11T12:47:50;-20928.19;;;2.54;34.17
12486;BME280;6307;46.804;11.580;2022-12-11T12:50:19;-20920.81;;;2.30;33.38
12486;BME280;6307;46.804;11.580;2022-12-11T12:52:50;-20927.75;;;2.53;33.70
12486;BME280;6307;46.804;11.580;2022-12-11T12:55:18;-20923.81;;;2.40;34.42
12486;BME280;6307;46.804;11.580;2022-12-11T12:58:04;-20934.22;;;2.74;35.30
12486;BME280;6307;46.804;11.580;2022-12-11T13:00:35;-20931.81;;;2.66;34.98
12486;BME280;6307;46.804;11.580;2022-12-11T13:03:16;-20934.06;;;2.74;36.38
12486;BME280;6307;46.804;11.580;2022-12-11T13:05:57;-20923.06;;;2.37;34.98
12486;BME280;6307;46.804;11.580;2022-12-11T13:08:26;-20928.50;;;2.55;35.26
12486;BME280;6307;46.804;11.580;2022-12-11T13:11:00;-20932.13;;;2.67;36.18
12486;BME280;6307;46.804;11.580;2022-12-11T13:13:38;-20920.06;;;2.27;33.96
12486;BME280;6307;46.804;11.580;2022-12-11T13:16:33;-20918.69;;;2.23;34.60
12486;BME280;6307;46.804;11.580;2022-12-11T13:19:02;-20936.19;;;2.81;35.44
12486;BME280;6307;46.804;11.580;2022-12-11T13:21:40;-20926.22;;;2.48;34.91
12486;BME280;6307;46.804;11.580;2022-12-11T13:24:26;-20929.09;;;2.57;34.03
12486;BME280;6307;46.804;11.580;2022-12-11T13:26:55;-20924.13;;;2.41;33.65
12486;BME280;6307;46.804;11.580;2022-12-11T13:29:38;-20931.06;;;2.64;34.69
12486;BME280;6307;46.804;11.580;2022-12-11T13:34:40;-20917.63;;;2.19;34.10
12486;BME280;6307;46.804;11.580;2022-12-11T13:37:32;-20918.41;;;2.22;34.53
12486;BME280;6307;46.804;11.580;2022-12-11T13:40:06;-20923.53;;;2.39;34.17
12486;BME280;6307;46.804;11.580;2022-12-11T13:43:03;-20926.38;;;2.48;35.37
12486;BME280;6307;46.804;11.580;2022-12-11T13:45:43;-20927.13;;;2.51;34.87
12486;BME280;6307;46.804;11.580;2022-12-11T13:48:34;-20922.91;;;2.37;34.49
12486;BME280;6307;46.804;11.580;2022-12-11T13:51:32;-20924.13;;;2.41;35.03
12486;BME280;6307;46.804;11.580;2022-12-11T13:54:14;-20928.94;;;2.57;35.66
12486;BME280;6307;46.804;11.580;2022-12-11T13:59:36;-20918.41;;;2.22;33.73
12486;BME280;6307;46.804;11.580;2022-12-11T14:02:20;-20924.44;;;2.42;35.81
12486;BME280;6307;46.804;11.580;2022-12-11T14:05:07;-20925.78;;;2.46;34.51
12486;BME280;6307;46.804;11.580;2022-12-11T14:07:38;-20921.41;;;2.32;35.28
12486;BME280;6307;46.804;11.580;2022-12-11T14:10:37;-20911.44;;;1.99;34.07
12486;BME280;6307;46.804;11.580;2022-12-11T14:13:09;-20914.31;;;2.08;33.38
12486;BME280;6307;46.804;11.580;2022-12-11T14:15:44;-20914.47;;;2.09;35.60
12486;BME280;6307;46.804;11.580;2022-12-11T14:18:20;-20915.53;;;2.12;35.35
12486;BME280;6307;46.804;11.580;2022-12-11T14:20:55;-20911.91;;;2.00;34.48
12486;BME280;6307;46.804;11.580;2022-12-11T14:23:34;-20913.13;;;2.04;34.54
12486;BME280;6307;46.804;11.580;2022-12-11T14:26:21;-20915.38;;;2.12;33.83
12486;BME280;6307;46.804;11.580;2022-12-11T14:28:49;-20910.69;;;1.96;34.30
12486;BME280;6307;46.804;11.580;2022-12-11T14:31:28;-20914.63;;;2.09;34.31
12486;BME280;6307;46.804;11.580;2022-12-11T14:34:06;-20916.28;;;2.15;34.50
12486;BME280;6307;46.804;11.580;2022-12-11T14:36:45;-20911.59;;;1.99;34.35
12486;BME280;6307;46.804;11.580;2022-12-11T14:39:18;-20918.41;;;2.22;35.16
12486;BME280;6307;46.804;11.580;2022-12-11T14:42:00;-20913.88;;;2.07;36.48
12486;BME280;6307;46.804;11.580;2022-12-11T14:45:12;-20907.06;;;1.84;35.33